createdAt,value
2023-01-19T00:00:57.804Z,100098.69
2023-01-19T00:06:05.969Z,100098.59
2023-01-19T00:11:12.594Z,100084.72
2023-01-19T00:16:17.513Z,100086.00
2023-01-19T00:21:22.735Z,100099.94
2023-01-19T00:26:25.855Z,100110.47
2023-01-19T00:31:30.144Z,100118.06
2023-01-19T00:36:35.394Z,100129.34
2023-01-19T00:41:55.720Z,100120.59
2023-01-19T00:46:58.688Z,100116.31
2023-01-19T00:52:03.321Z,100112.69
2023-01-19T00:57:08.308Z,100113.78
2023-01-19T01:02:12.217Z,100128.63
2023-01-19T01:07:16.582Z,100134.78
2023-01-19T01:12:19.605Z,100129.78
2023-01-19T01:17:24.972Z,100128.78
2023-01-19T01:22:29.648Z,100131.31
2023-01-19T01:27:32.663Z,100144.09
2023-01-19T01:32:35.640Z,100150.97
2023-01-19T01:37:40.057Z,100144.88
2023-01-19T01:42:43.474Z,100144.28
2023-01-19T01:47:49.934Z,100148.38
2023-01-19T01:53:06.910Z,100160.63
2023-01-19T01:58:12.643Z,100167.69
2023-01-19T02:03:15.895Z,100166.88
2023-01-19T02:08:43.729Z,100179.03
2023-01-19T02:13:47.832Z,100179.91
2023-01-19T02:18:50.881Z,100181.09
2023-01-19T02:23:56.761Z,100179.03
2023-01-19T02:29:02.523Z,100201.19
2023-01-19T02:34:08.172Z,100201.63
2023-01-19T02:39:13.709Z,100218.16
2023-01-19T02:44:18.496Z,100219.75
2023-01-19T02:49:22.140Z,100222.81
2023-01-19T02:54:37.735Z,100225.00
2023-01-19T02:59:54.953Z,100239.41
2023-01-19T03:05:21.923Z,100267.97
2023-01-19T03:10:33.020Z,100250.19
2023-01-19T03:15:41.957Z,100260.16
2023-01-19T03:20:46.195Z,100282.69
2023-01-19T03:25:52.175Z,100281.81
2023-01-19T03:30:59.482Z,100285.00
2023-01-19T03:36:07.342Z,100299.84
2023-01-19T03:41:15.636Z,100284.28
2023-01-19T03:46:20.601Z,100299.53
2023-01-19T03:51:23.872Z,100316.25
2023-01-19T03:56:28.261Z,100301.50
2023-01-19T04:01:31.666Z,100289.50
2023-01-19T04:06:34.891Z,100298.44
2023-01-19T04:11:41.352Z,100278.53
2023-01-19T04:16:44.738Z,100285.22
2023-01-19T04:21:50.840Z,100272.34
2023-01-19T04:26:55.550Z,100285.41
2023-01-19T04:31:58.628Z,100269.88
2023-01-19T04:37:01.773Z,100266.97
2023-01-19T04:42:08.376Z,100266.56
2023-01-19T04:47:12.002Z,100274.44
2023-01-19T04:52:15.017Z,100256.22
2023-01-19T04:57:19.565Z,100272.66
2023-01-19T05:02:22.828Z,100272.44
2023-01-19T05:07:25.947Z,100259.72
2023-01-19T05:12:30.379Z,100264.00
2023-01-19T05:17:33.593Z,100276.84
2023-01-19T05:22:36.588Z,100278.81
2023-01-19T05:27:41.195Z,100286.91
2023-01-19T05:32:44.327Z,100291.59
2023-01-19T05:37:47.489Z,100291.94
2023-01-19T05:42:53.324Z,100301.94
2023-01-19T05:47:56.714Z,100313.56
2023-01-19T05:53:00.613Z,100307.69
2023-01-19T05:58:05.504Z,100301.78
2023-01-19T06:03:08.823Z,100315.66
2023-01-19T06:08:12.552Z,100326.78
2023-01-19T06:13:17.579Z,100327.50
2023-01-19T06:18:21.234Z,100331.97
2023-01-19T06:23:24.590Z,100343.44
2023-01-19T06:28:29.418Z,100338.75
2023-01-19T06:33:32.769Z,100345.53
2023-01-19T06:38:35.828Z,100358.66
2023-01-19T06:43:40.272Z,100367.75
2023-01-19T06:48:43.502Z,100369.03
2023-01-19T06:53:46.868Z,100380.78
2023-01-19T06:58:53.134Z,100382.75
2023-01-19T07:03:56.185Z,100401.34
2023-01-19T07:09:00.423Z,100403.44
2023-01-19T07:14:05.127Z,100415.47
2023-01-19T07:19:10.843Z,100424.00
2023-01-19T07:24:14.040Z,100421.13
2023-01-19T07:29:18.586Z,100437.88
2023-01-19T07:34:21.690Z,100442.41
2023-01-19T07:39:24.689Z,100441.53
2023-01-19T07:44:29.171Z,100453.47
2023-01-19T07:49:32.214Z,100445.13
2023-01-19T07:54:35.193Z,100464.66
2023-01-19T07:59:39.839Z,100469.63
2023-01-19T08:04:43.629Z,100473.81
2023-01-19T08:09:46.996Z,100482.09
2023-01-19T08:14:51.418Z,100488.50
2023-01-19T08:19:54.799Z,100485.88
2023-01-19T08:24:58.126Z,100499.31
2023-01-19T08:30:02.838Z,100505.13
2023-01-19T08:35:07.105Z,100510.28
2023-01-19T08:40:11.964Z,100520.09
2023-01-19T08:45:16.702Z,100537.44
2023-01-19T08:50:20.182Z,100534.84
2023-01-19T08:55:23.461Z,100537.19
2023-01-19T09:00:31.671Z,100547.97
2023-01-19T09:05:39.040Z,100550.94
2023-01-19T09:10:47.257Z,100550.16
2023-01-19T09:15:52.788Z,100555.94
2023-01-19T09:20:59.079Z,100553.53
2023-01-19T09:26:04.851Z,100562.81
2023-01-19T09:31:10.052Z,100564.50
2023-01-19T09:36:13.718Z,100567.88
2023-01-19T09:41:22.336Z,100579.47
2023-01-19T09:46:34.645Z,100574.34
2023-01-19T09:51:42.556Z,100579.31
2023-01-19T09:56:46.429Z,100580.34
2023-01-19T10:02:18.915Z,100589.16
2023-01-19T10:07:33.938Z,100604.72
2023-01-19T10:12:51.139Z,100608.34
2023-01-19T10:18:11.059Z,100606.19
2023-01-19T10:23:24.473Z,100602.53
2023-01-19T10:28:29.269Z,100605.03
2023-01-19T10:33:34.869Z,100612.34
2023-01-19T10:38:38.123Z,100603.28
2023-01-19T10:43:43.617Z,100605.41
2023-01-19T10:48:50.669Z,100609.81
2023-01-19T10:54:02.741Z,100615.13
2023-01-19T10:59:09.495Z,100607.91
2023-01-19T11:04:29.551Z,100595.63
2023-01-19T11:09:32.635Z,100604.84
2023-01-19T11:14:35.922Z,100608.75
2023-01-19T11:19:43.133Z,100600.75
2023-01-19T11:24:46.498Z,100624.97
2023-01-19T11:29:52.302Z,100622.16
2023-01-19T11:34:56.709Z,100611.91
2023-01-19T11:40:02.956Z,100614.88
2023-01-19T11:45:13.713Z,100617.47
2023-01-19T11:50:25.069Z,100610.53
2023-01-19T11:55:37.749Z,100611.66
2023-01-19T12:00:45.721Z,100615.84
2023-01-19T12:05:53.282Z,100611.88
2023-01-19T12:10:59.553Z,100609.38
2023-01-19T12:16:09.895Z,100603.84
2023-01-19T12:21:14.590Z,100608.41
2023-01-19T12:26:29.624Z,100607.41
2023-01-19T12:31:33.760Z,100601.72
2023-01-19T12:36:40.449Z,100611.97
2023-01-19T12:41:44.300Z,100614.94
2023-01-19T12:46:50.191Z,100612.78
2023-01-19T12:52:11.473Z,100613.91
2023-01-19T12:57:22.427Z,100602.94
2023-01-19T13:02:53.828Z,100599.81
2023-01-19T13:08:25.439Z,100610.44
2023-01-19T13:13:30.792Z,100601.56
2023-01-19T13:18:41.413Z,100605.34
2023-01-19T13:23:56.452Z,100604.50
2023-01-19T13:29:10.335Z,100608.66
2023-01-19T13:34:16.396Z,100606.13
2023-01-19T13:39:29.494Z,100594.91
2023-01-19T13:44:39.183Z,100610.50
2023-01-19T13:49:45.986Z,100613.31
2023-01-19T13:54:53.334Z,100613.63
2023-01-19T14:00:07.885Z,100618.56
2023-01-19T14:05:23.330Z,100629.84
2023-01-19T14:10:28.670Z,100626.28
2023-01-19T14:15:35.067Z,100634.50
2023-01-19T14:20:38.543Z,100626.41
2023-01-19T14:25:46.477Z,100639.19
2023-01-19T14:30:57.537Z,100650.28
2023-01-19T14:36:11.002Z,100637.19
2023-01-19T14:41:25.426Z,100664.22
2023-01-19T14:46:29.504Z,100658.03
2023-01-19T14:51:33.363Z,100652.94
2023-01-19T14:56:37.890Z,100660.50
2023-01-19T15:01:41.158Z,100659.84
2023-01-19T15:06:46.012Z,100660.56
2023-01-19T15:11:52.115Z,100661.78
2023-01-19T15:16:56.079Z,100674.81
2023-01-19T15:21:59.658Z,100661.25
2023-01-19T15:27:17.600Z,100672.94
2023-01-19T15:32:25.926Z,100686.56
2023-01-19T15:37:29.167Z,100684.81
2023-01-19T15:42:34.571Z,100692.72
2023-01-19T15:47:37.641Z,100688.63
2023-01-19T15:52:41.043Z,100696.50
2023-01-19T15:57:46.340Z,100709.84
2023-01-19T16:02:52.155Z,100708.28
2023-01-19T16:08:04.163Z,100713.81
2023-01-19T16:13:08.651Z,100717.16
2023-01-19T16:18:11.699Z,100725.91
2023-01-19T16:23:15.628Z,100731.59
2023-01-19T16:28:20.589Z,100733.88
2023-01-19T16:33:24.033Z,100733.44
2023-01-19T16:38:27.145Z,100743.66
2023-01-19T16:43:31.547Z,100748.47
2023-01-19T16:48:34.613Z,100747.91
2023-01-19T16:53:37.741Z,100755.91
2023-01-19T16:58:42.740Z,100769.09
2023-01-19T17:03:46.546Z,100770.97
2023-01-19T17:08:49.641Z,100774.25
2023-01-19T17:13:56.675Z,100786.16
2023-01-19T17:19:01.761Z,100782.06
2023-01-19T17:24:09.965Z,100780.53
2023-01-19T17:29:14.725Z,100780.22
2023-01-19T17:34:17.859Z,100794.78
2023-01-19T17:39:21.064Z,100796.16
2023-01-19T17:44:25.663Z,100811.81
2023-01-19T17:49:28.997Z,100824.78
2023-01-19T17:54:32.090Z,100847.09
2023-01-19T17:59:37.754Z,100850.69
2023-01-19T18:04:41.310Z,100851.63
2023-01-19T18:09:44.432Z,100839.41
2023-01-19T18:14:50.391Z,100834.47
2023-01-19T18:19:54.791Z,100834.47
2023-01-19T18:24:57.840Z,100837.50
2023-01-19T18:30:02.301Z,100830.50
2023-01-19T18:35:06.181Z,100816.72
2023-01-19T18:40:13.614Z,100825.56
2023-01-19T18:45:20.337Z,100823.19
2023-01-19T18:50:23.632Z,100824.88
2023-01-19T18:55:26.914Z,100836.63
2023-01-19T19:00:31.652Z,100839.47
2023-01-19T19:05:34.963Z,100837.81
2023-01-19T19:10:41.687Z,100839.53
2023-01-19T19:15:46.077Z,100845.66
2023-01-19T19:20:49.119Z,100840.56
2023-01-19T19:25:52.130Z,100853.44
2023-01-19T19:31:09.457Z,100857.38
2023-01-19T19:36:12.691Z,100880.56
2023-01-19T19:41:18.481Z,100880.22
2023-01-19T20:06:39.306Z,100910.72
2023-01-19T20:11:43.572Z,100927.19
2023-01-19T20:16:47.180Z,100928.72
2023-01-19T20:21:53.989Z,100943.41
2023-01-19T20:47:40.813Z,100987.63
2023-01-19T20:52:45.159Z,100989.97
2023-01-19T21:04:04.513Z,100994.38
2023-01-19T21:09:10.368Z,100985.75
2023-01-19T21:14:13.376Z,100992.19
2023-01-19T21:20:03.975Z,100989.59
2023-01-19T21:25:09.322Z,101001.75
2023-01-19T21:30:15.320Z,100995.78
2023-01-19T21:35:44.307Z,100990.13
2023-01-19T21:47:18.921Z,101017.63
2023-01-19T22:12:18.084Z,101023.97
2023-01-19T22:17:21.619Z,100982.09
2023-01-19T23:06:06.387Z,100998.31
2023-01-19T23:11:50.332Z,101004.38
2023-01-19T23:30:15.385Z,101076.75
2023-01-19T23:35:45.376Z,101096.53
2023-01-19T23:41:22.298Z,101105.34
2023-01-19T23:47:36.536Z,101074.88
